createdAt,value
2019-01-19T00:01:03.166Z,5.40
2019-01-19T00:04:18.108Z,6.03
2019-01-19T00:07:35.775Z,4.47
2019-01-19T00:10:50.298Z,5.60
2019-01-19T00:14:21.563Z,6.13
2019-01-19T00:17:38.389Z,6.00
2019-01-19T00:21:03.124Z,5.50
2019-01-19T00:24:18.878Z,5.47
2019-01-19T00:27:42.176Z,5.60
2019-01-19T00:30:50.570Z,6.20
2019-01-19T00:33:58.524Z,6.73
2019-01-19T00:37:04.182Z,7.33
2019-01-19T00:40:38.595Z,6.37
2019-01-19T00:43:36.119Z,6.50
2019-01-19T00:46:51.599Z,6.93
2019-01-19T00:49:54.247Z,6.63
2019-01-19T00:53:22.506Z,7.90
2019-01-19T00:56:42.103Z,6.90
2019-01-19T00:59:38.476Z,7.87
2019-01-19T01:02:57.728Z,7.57
2019-01-19T01:06:26.858Z,6.90
2019-01-19T01:09:54.624Z,7.10
2019-01-19T01:12:56.463Z,7.43
2019-01-19T01:16:34.634Z,6.83
2019-01-19T01:19:54.361Z,6.60
2019-01-19T01:23:11.667Z,7.23
2019-01-19T01:26:52.595Z,6.87
2019-01-19T01:30:16.911Z,6.40
2019-01-19T01:33:41.923Z,7.97
2019-01-19T01:37:02.386Z,7.73
2019-01-19T01:40:43.527Z,7.10
2019-01-19T01:44:08.591Z,8.20
2019-01-19T01:47:35.266Z,7.30
2019-01-19T01:50:51.720Z,8.53
2019-01-19T01:54:20.840Z,7.03
2019-01-19T01:57:18.655Z,7.30
2019-01-19T02:00:40.503Z,6.43
2019-01-19T02:03:56.173Z,6.40
2019-01-19T02:07:13.772Z,6.47
2019-01-19T02:10:51.293Z,8.03
2019-01-19T02:13:51.927Z,5.87
2019-01-19T02:17:05.811Z,7.30
2019-01-19T02:20:08.932Z,7.20
2019-01-19T02:23:50.388Z,6.67
2019-01-19T02:27:14.231Z,7.27
2019-01-19T02:30:27.799Z,7.27
2019-01-19T02:33:41.629Z,8.27
2019-01-19T02:37:00.828Z,7.50
2019-01-19T02:40:24.944Z,8.23
2019-01-19T02:43:49.874Z,8.13
2019-01-19T02:47:11.066Z,8.20
2019-01-19T02:50:48.478Z,7.90
2019-01-19T02:54:08.002Z,8.27
2019-01-19T02:57:37.409Z,8.23
2019-01-19T03:01:03.808Z,8.87
2019-01-19T03:04:32.818Z,8.00
2019-01-19T03:08:11.335Z,8.40
2019-01-19T03:11:36.233Z,9.67
2019-01-19T03:15:00.039Z,9.50
2019-01-19T03:18:41.708Z,7.87
2019-01-19T03:21:57.366Z,8.23
2019-01-19T03:25:21.767Z,9.57
2019-01-19T03:29:05.980Z,9.60
2019-01-19T03:32:38.443Z,9.33
2019-01-19T03:35:54.412Z,9.23
2019-01-19T03:39:12.181Z,10.27
2019-01-19T03:42:12.145Z,11.50
2019-01-19T03:45:12.869Z,10.17
2019-01-19T03:48:40.671Z,9.73
2019-01-19T03:51:40.936Z,10.63
2019-01-19T03:55:05.580Z,11.13
2019-01-19T03:58:13.266Z,10.50
2019-01-19T04:01:16.082Z,10.97
2019-01-19T04:04:33.966Z,10.67
2019-01-19T04:07:33.644Z,11.13
2019-01-19T04:10:34.274Z,11.33
2019-01-19T04:13:54.603Z,9.77
2019-01-19T04:17:22.193Z,10.50
2019-01-19T04:21:12.751Z,10.67
2019-01-19T04:24:11.912Z,12.00
2019-01-19T04:27:00.120Z,11.23
2019-01-19T04:29:47.640Z,10.67
2019-01-19T04:32:35.680Z,10.73
2019-01-19T04:35:23.764Z,11.23
2019-01-19T04:38:11.665Z,11.90
2019-01-19T04:40:59.582Z,10.73
2019-01-19T04:43:47.614Z,11.27
2019-01-19T04:46:35.327Z,10.83
2019-01-19T04:49:23.242Z,10.87
2019-01-19T04:52:10.827Z,10.57
2019-01-19T04:54:58.723Z,10.07
2019-01-19T04:57:46.696Z,11.00
2019-01-19T05:00:34.981Z,9.73
2019-01-19T05:03:22.864Z,10.40
2019-01-19T05:06:12.578Z,11.07
2019-01-19T05:09:00.372Z,10.80
2019-01-19T05:11:48.124Z,11.63
2019-01-19T05:14:36.048Z,12.73
2019-01-19T05:17:23.834Z,11.97
2019-01-19T05:20:12.539Z,11.87
2019-01-19T05:23:00.642Z,12.27
2019-01-19T05:25:48.475Z,12.30
2019-01-19T05:28:36.470Z,12.77
2019-01-19T05:31:24.875Z,12.43
2019-01-19T05:34:13.111Z,13.03
2019-01-19T05:37:01.457Z,14.03
2019-01-19T05:39:49.306Z,13.87
2019-01-19T05:42:37.300Z,13.50
2019-01-19T05:45:25.205Z,12.30
2019-01-19T05:48:12.783Z,14.13
2019-01-19T05:51:00.628Z,13.23
2019-01-19T05:53:48.350Z,14.60
2019-01-19T05:56:36.210Z,12.93
2019-01-19T05:59:23.774Z,13.60
2019-01-19T06:02:12.192Z,12.23
2019-01-19T06:05:00.362Z,14.60
2019-01-19T06:07:48.480Z,13.50
2019-01-19T06:10:35.923Z,14.07
2019-01-19T06:13:24.040Z,13.70
2019-01-19T06:16:12.718Z,13.47
2019-01-19T06:19:00.893Z,11.80
2019-01-19T06:21:54.232Z,13.07
2019-01-19T06:24:42.090Z,12.33
2019-01-19T06:27:29.968Z,12.37
2019-01-19T06:30:20.500Z,12.47
2019-01-19T06:33:08.625Z,12.23
2019-01-19T06:35:56.861Z,12.60
2019-01-19T06:38:44.911Z,12.37
2019-01-19T06:41:33.075Z,13.93
2019-01-19T06:44:21.137Z,14.13
2019-01-19T06:47:09.466Z,12.27
2019-01-19T06:49:57.258Z,11.53
2019-01-19T06:52:45.449Z,12.43
2019-01-19T06:55:35.318Z,13.73
2019-01-19T06:58:23.324Z,14.50
2019-01-19T07:01:11.424Z,14.67
2019-01-19T07:03:59.583Z,14.50
2019-01-19T07:06:47.774Z,14.83
2019-01-19T07:09:35.887Z,12.97
2019-01-19T07:12:23.729Z,13.13
2019-01-19T07:15:12.622Z,12.50
2019-01-19T07:18:00.367Z,12.83
2019-01-19T07:20:48.218Z,11.33
2019-01-19T07:23:36.616Z,11.70
2019-01-19T07:26:24.444Z,13.30
2019-01-19T07:29:12.694Z,12.50
2019-01-19T07:32:00.677Z,12.10
2019-01-19T07:34:49.200Z,11.63
2019-01-19T07:37:37.128Z,10.93
2019-01-19T07:40:26.116Z,12.47
2019-01-19T07:43:15.747Z,11.63
2019-01-19T07:46:05.327Z,12.07
2019-01-19T07:48:53.263Z,11.27
2019-01-19T07:51:41.081Z,12.13
2019-01-19T07:54:29.092Z,11.83
2019-01-19T07:57:17.272Z,10.67
2019-01-19T08:00:08.858Z,12.30
2019-01-19T08:02:57.372Z,11.30
2019-01-19T08:05:45.438Z,12.10
2019-01-19T08:08:33.587Z,12.77
2019-01-19T08:11:21.635Z,12.07
2019-01-19T08:14:09.264Z,11.83
2019-01-19T08:16:57.075Z,11.43
2019-01-19T08:19:45.545Z,12.43
2019-01-19T08:22:33.385Z,12.57
2019-01-19T08:25:21.915Z,11.87
2019-01-19T08:28:09.639Z,12.13
2019-01-19T08:30:57.239Z,11.97
2019-01-19T08:33:45.192Z,11.33
2019-01-19T08:36:33.204Z,11.83
2019-01-19T08:39:21.105Z,11.73
2019-01-19T08:42:09.450Z,11.07
2019-01-19T08:44:57.456Z,10.97
2019-01-19T08:47:45.685Z,9.83
2019-01-19T08:50:34.039Z,11.23
2019-01-19T08:53:21.957Z,11.77
2019-01-19T08:56:10.201Z,11.53
2019-01-19T08:58:58.062Z,11.73
2019-01-19T09:01:46.252Z,11.37
2019-01-19T09:04:34.490Z,10.50
2019-01-19T09:07:22.416Z,11.63
2019-01-19T09:10:12.730Z,12.17
2019-01-19T09:13:00.560Z,11.40
2019-01-19T09:15:48.562Z,12.13
2019-01-19T09:18:36.441Z,11.30
2019-01-19T09:21:24.381Z,10.87
2019-01-19T09:24:31.062Z,11.10
2019-01-19T09:27:19.459Z,12.77
2019-01-19T09:30:10.901Z,12.70
2019-01-19T09:32:58.792Z,11.90
2019-01-19T09:35:46.745Z,11.13
2019-01-19T09:38:34.835Z,12.27
2019-01-19T09:41:23.242Z,14.27
2019-01-19T09:44:10.691Z,14.47
2019-01-19T09:46:58.259Z,13.73
2019-01-19T09:49:46.392Z,13.87
2019-01-19T09:52:35.217Z,12.33
2019-01-19T09:55:23.149Z,11.70
2019-01-19T09:58:12.549Z,14.43
2019-01-19T10:01:00.545Z,13.00
2019-01-19T10:03:48.470Z,12.03
2019-01-19T10:06:36.524Z,14.27
2019-01-19T10:09:25.385Z,12.70
2019-01-19T10:12:13.171Z,11.63
2019-01-19T10:15:00.774Z,9.17
2019-01-19T10:17:49.037Z,10.70
2019-01-19T10:20:37.118Z,10.37
2019-01-19T10:23:25.306Z,10.77
2019-01-19T10:26:12.920Z,9.23
2019-01-19T10:29:01.441Z,8.70
2019-01-19T10:31:49.502Z,7.80
2019-01-19T10:34:37.123Z,8.20
2019-01-19T10:37:25.323Z,8.23
2019-01-19T10:40:14.280Z,9.17
2019-01-19T10:43:02.244Z,7.77
2019-01-19T10:45:50.379Z,8.53
2019-01-19T10:48:38.345Z,8.33
2019-01-19T10:51:26.886Z,8.53
2019-01-19T10:54:14.427Z,8.00
2019-01-19T10:57:04.623Z,7.67
2019-01-19T10:59:52.706Z,7.10
2019-01-19T11:02:41.332Z,8.63
2019-01-19T11:05:30.405Z,7.93
2019-01-19T11:08:18.529Z,7.63
2019-01-19T11:11:06.233Z,8.13
2019-01-19T11:13:53.850Z,9.00
2019-01-19T11:16:42.989Z,8.97
2019-01-19T11:19:31.040Z,8.43
2019-01-19T11:22:19.117Z,7.93
2019-01-19T11:25:06.823Z,9.50
2019-01-19T11:27:54.764Z,8.47
2019-01-19T11:30:46.001Z,8.93
2019-01-19T11:33:34.147Z,8.60
2019-01-19T11:36:22.162Z,9.87
2019-01-19T11:39:10.046Z,10.07
2019-01-19T11:41:58.158Z,8.87
2019-01-19T11:44:45.827Z,8.70
2019-01-19T11:47:33.715Z,8.50
2019-01-19T11:50:22.692Z,8.20
2019-01-19T11:53:10.846Z,8.60
2019-01-19T11:55:58.611Z,8.30
2019-01-19T11:58:46.718Z,8.67
2019-01-19T12:01:34.502Z,9.27
2019-01-19T12:04:22.810Z,8.33
2019-01-19T12:07:11.242Z,8.27
2019-01-19T12:09:59.110Z,8.23
2019-01-19T12:12:47.211Z,9.77
2019-01-19T12:15:35.124Z,8.43
2019-01-19T12:18:23.656Z,8.80
2019-01-19T12:21:12.033Z,8.70
2019-01-19T12:24:00.250Z,8.53
2019-01-19T12:26:48.158Z,9.43
2019-01-19T12:29:37.158Z,9.23
2019-01-19T12:32:25.440Z,9.43
2019-01-19T12:35:13.456Z,8.03
2019-01-19T12:38:01.732Z,8.77
2019-01-19T12:40:49.544Z,8.97
2019-01-19T12:43:37.504Z,9.20
2019-01-19T12:46:25.311Z,9.67
2019-01-19T12:49:14.267Z,8.77
2019-01-19T12:52:01.813Z,9.37
2019-01-19T12:54:50.081Z,10.13
2019-01-19T12:57:37.867Z,8.83
2019-01-19T13:00:26.718Z,10.57
2019-01-19T13:03:15.060Z,9.23
2019-01-19T13:06:30.088Z,9.70
2019-01-19T13:09:30.044Z,8.80
2019-01-19T13:12:57.725Z,9.83
2019-01-19T13:16:39.041Z,10.17
2019-01-19T13:19:53.685Z,8.60
2019-01-19T13:23:21.725Z,9.87
2019-01-19T13:27:04.576Z,9.53
2019-01-19T13:30:20.984Z,9.80
2019-01-19T13:33:29.308Z,10.20
2019-01-19T13:36:47.478Z,10.10
2019-01-19T13:40:07.886Z,9.40
2019-01-19T13:43:31.560Z,9.27
2019-01-19T13:47:18.769Z,9.97
2019-01-19T13:50:37.291Z,9.77
2019-01-19T13:54:02.356Z,9.43
2019-01-19T13:57:13.170Z,10.73
2019-01-19T14:00:47.041Z,10.63
2019-01-19T14:03:50.046Z,10.63
2019-01-19T14:07:15.072Z,9.83
2019-01-19T14:10:28.848Z,9.67
2019-01-19T14:14:16.240Z,10.87
2019-01-19T14:17:28.988Z,9.83
2019-01-19T14:20:38.537Z,10.20
2019-01-19T14:23:39.024Z,9.70
2019-01-19T14:26:48.281Z,9.80
2019-01-19T14:30:29.097Z,9.60
2019-01-19T14:33:46.673Z,9.90
2019-01-19T14:37:02.719Z,8.77
2019-01-19T14:40:32.480Z,9.77
2019-01-19T14:44:04.976Z,10.10
2019-01-19T14:47:04.753Z,9.90
2019-01-19T14:50:38.536Z,10.13
2019-01-19T14:53:58.077Z,9.93
2019-01-19T14:57:28.366Z,9.87
2019-01-19T15:01:11.433Z,9.37
2019-01-19T15:04:19.694Z,9.23
2019-01-19T15:07:35.457Z,9.63
2019-01-19T15:10:52.087Z,10.73
2019-01-19T15:14:01.067Z,9.70
2019-01-19T15:17:51.348Z,9.77
2019-01-19T15:21:04.272Z,9.37
2019-01-19T15:24:04.236Z,9.73
2019-01-19T15:27:25.479Z,9.67
2019-01-19T15:30:54.834Z,8.70
2019-01-19T15:34:19.734Z,9.30
2019-01-19T15:37:55.899Z,9.53
2019-01-19T15:41:26.793Z,8.77
2019-01-19T15:44:39.895Z,8.77
2019-01-19T15:47:56.133Z,9.00
2019-01-19T15:51:02.614Z,8.73
2019-01-19T15:54:15.816Z,9.67
2019-01-19T15:57:31.859Z,8.90
2019-01-19T16:00:39.104Z,9.13
2019-01-19T16:03:50.437Z,9.93
2019-01-19T16:07:34.665Z,9.70
2019-01-19T16:10:57.439Z,8.63
2019-01-19T16:14:17.965Z,8.07
2019-01-19T16:17:53.267Z,9.73
2019-01-19T16:21:06.879Z,9.00
2019-01-19T16:24:32.453Z,9.73
2019-01-19T16:27:46.546Z,9.47
2019-01-19T16:31:23.378Z,9.03
2019-01-19T16:34:39.450Z,9.80
2019-01-19T16:37:56.053Z,8.73
2019-01-19T16:41:06.207Z,9.93
2019-01-19T16:44:30.025Z,9.37
2019-01-19T16:47:58.885Z,9.30
2019-01-19T16:51:43.053Z,8.90
2019-01-19T16:55:14.841Z,9.40
2019-01-19T16:58:26.910Z,9.67
2019-01-19T17:01:59.683Z,10.77
2019-01-19T17:05:16.964Z,10.27
2019-01-19T17:08:43.468Z,11.03
2019-01-19T17:11:54.571Z,13.43
2019-01-19T17:15:20.390Z,13.50
2019-01-19T17:18:39.838Z,14.70
2019-01-19T17:22:01.311Z,13.23
2019-01-19T17:25:17.323Z,14.33
2019-01-19T17:28:51.538Z,14.23
2019-01-19T17:32:11.204Z,13.40
2019-01-19T17:36:07.659Z,14.03
2019-01-19T17:39:50.403Z,13.50
2019-01-19T17:43:13.163Z,15.10
2019-01-19T17:46:36.415Z,14.17
2019-01-19T17:49:54.187Z,15.53
2019-01-19T17:53:17.958Z,15.07
2019-01-19T17:56:31.266Z,15.97
2019-01-19T17:59:45.088Z,16.23
2019-01-19T18:02:53.946Z,16.63
2019-01-19T18:06:09.572Z,17.33
2019-01-19T18:09:18.911Z,16.77
2019-01-19T18:12:46.745Z,15.67
2019-01-19T18:15:55.404Z,15.63
2019-01-19T18:19:31.842Z,14.23
2019-01-19T18:23:12.930Z,13.60
2019-01-19T18:26:39.222Z,14.03
2019-01-19T18:30:16.284Z,12.90
2019-01-19T18:33:55.417Z,13.53
2019-01-19T18:37:24.237Z,12.17
2019-01-19T18:40:56.020Z,12.40
2019-01-19T18:44:19.838Z,12.70
2019-01-19T18:47:46.742Z,12.10
2019-01-19T18:51:07.091Z,11.63
2019-01-19T18:54:48.339Z,11.50
2019-01-19T18:58:23.738Z,12.63
2019-01-19T19:01:54.602Z,12.03
2019-01-19T19:05:33.654Z,11.40
2019-01-19T19:08:58.662Z,11.37
2019-01-19T19:12:30.927Z,11.57
2019-01-19T19:16:02.089Z,12.23
2019-01-19T19:19:08.732Z,11.70
2019-01-19T19:22:41.042Z,11.67
2019-01-19T19:26:11.171Z,12.13
2019-01-19T19:29:22.255Z,11.97
2019-01-19T19:32:41.280Z,12.37
2019-01-19T19:36:05.358Z,12.33
2019-01-19T19:39:36.540Z,13.43
2019-01-19T19:43:23.715Z,14.53
2019-01-19T19:46:43.270Z,13.60
2019-01-19T19:49:57.995Z,11.63
2019-01-19T19:52:46.222Z,13.27
2019-01-19T19:55:32.550Z,14.20
2019-01-19T19:58:21.604Z,13.60
2019-01-19T20:01:11.416Z,13.40
2019-01-19T20:03:59.233Z,14.20
2019-01-19T20:06:46.982Z,14.80
2019-01-19T20:09:35.002Z,14.37
2019-01-19T20:12:23.111Z,13.87
2019-01-19T20:15:11.592Z,13.60
2019-01-19T20:17:59.428Z,13.30
2019-01-19T20:20:47.303Z,13.40
2019-01-19T20:23:35.263Z,13.53
2019-01-19T20:26:23.227Z,13.73
2019-01-19T20:29:11.245Z,13.17
2019-01-19T20:31:59.518Z,14.47
2019-01-19T20:34:47.399Z,13.87
2019-01-19T20:37:35.507Z,13.40
2019-01-19T20:40:24.421Z,13.23
2019-01-19T20:43:12.920Z,14.17
2019-01-19T20:46:01.005Z,13.00
2019-01-19T20:48:48.683Z,13.90
2019-01-19T20:51:36.451Z,14.10
2019-01-19T20:54:24.493Z,13.90
2019-01-19T20:57:12.429Z,13.77
2019-01-19T21:00:00.665Z,12.43
2019-01-19T21:02:48.859Z,14.33
2019-01-19T21:05:36.689Z,13.10
2019-01-19T21:08:24.263Z,12.87
2019-01-19T21:11:12.342Z,13.30
2019-01-19T21:14:00.571Z,13.83
2019-01-19T21:16:48.878Z,13.77
2019-01-19T21:19:37.018Z,13.67
2019-01-19T21:22:24.770Z,15.10
2019-01-19T21:25:13.097Z,14.10
2019-01-19T21:28:03.657Z,13.90
2019-01-19T21:30:51.811Z,14.13
2019-01-19T21:33:39.903Z,13.63
2019-01-19T21:36:28.043Z,16.30
2019-01-19T21:39:16.100Z,16.93
2019-01-19T21:42:03.925Z,17.77
2019-01-19T21:44:51.572Z,19.03
2019-01-19T21:47:39.803Z,15.47
2019-01-19T21:50:27.739Z,17.47
2019-01-19T21:53:15.724Z,17.03
2019-01-19T21:56:03.614Z,15.93
2019-01-19T21:58:51.475Z,15.93
2019-01-19T22:01:39.823Z,16.40
2019-01-19T22:04:27.830Z,16.53
2019-01-19T22:07:15.475Z,18.03
2019-01-19T22:10:03.575Z,19.07
2019-01-19T22:12:51.410Z,17.87
2019-01-19T22:15:39.575Z,19.90
2019-01-19T22:18:28.304Z,19.83
2019-01-19T22:21:16.524Z,18.90
2019-01-19T22:24:04.524Z,20.97
2019-01-19T22:26:53.763Z,19.67
2019-01-19T22:29:41.909Z,18.30
2019-01-19T22:32:31.145Z,18.50
2019-01-19T22:35:19.138Z,17.60
2019-01-19T22:38:06.866Z,16.13
2019-01-19T22:40:54.882Z,15.90
2019-01-19T22:43:43.004Z,16.20
2019-01-19T22:46:30.989Z,16.30
2019-01-19T22:49:19.141Z,16.73
2019-01-19T22:52:07.079Z,14.90
2019-01-19T22:54:54.878Z,15.60
2019-01-19T22:57:43.240Z,16.87
2019-01-19T23:00:58.132Z,16.80
2019-01-19T23:03:46.239Z,17.77
2019-01-19T23:06:33.847Z,16.17
2019-01-19T23:09:22.059Z,17.50
2019-01-19T23:12:10.050Z,16.97
2019-01-19T23:14:58.242Z,16.53
2019-01-19T23:17:47.479Z,16.93
2019-01-19T23:20:35.375Z,16.97
2019-01-19T23:23:23.072Z,18.97
2019-01-19T23:26:11.728Z,17.70
2019-01-19T23:28:59.146Z,19.63
2019-01-19T23:31:47.439Z,18.93
2019-01-19T23:34:35.112Z,18.27
2019-01-19T23:37:22.810Z,19.77
2019-01-19T23:40:11.005Z,16.97
2019-01-19T23:42:59.057Z,18.33
2019-01-19T23:45:46.843Z,19.53
2019-01-19T23:48:35.070Z,20.67
2019-01-19T23:51:24.517Z,22.27
2019-01-19T23:54:12.503Z,22.33
2019-01-19T23:57:00.675Z,23.57
2019-01-19T23:59:48.598Z,22.83
